sensor_id;sensor_type;location;lat;lon;timestamp;temperature;humidity
64715;DHT22;51144;53.002;6.506;2023-02-28T00:00:34;4.20;99.90
64715;DHT22;51144;53.002;6.506;2023-02-28T00:03:00;4.20;99.90
64715;DHT22;51144;53.002;6.506;2023-02-28T00:05:27;4.20;99.90
64715;DHT22;51144;53.002;6.506;2023-02-28T00:07:53;4.20;99.90
64715;DHT22;51144;53.002;6.506;2023-02-28T00:10:20;4.20;99.90
64715;DHT22;51144;53.002;6.506;2023-02-28T00:12:49;4.10;99.90
64715;DHT22;51144;53.002;6.506;2023-02-28T00:15:15;4.10;99.90
64715;DHT22;51144;53.002;6.506;2023-02-28T00:17:41;4.10;99.90
64715;DHT22;51144;53.002;6.506;2023-02-28T00:20:08;4.10;99.90
64715;DHT22;51144;53.002;6.506;2023-02-28T00:22:36;4.10;99.90
64715;DHT22;51144;53.002;6.506;2023-02-28T00:25:01;4.10;99.90
64715;DHT22;51144;53.002;6.506;2023-02-28T00:27:27;4.10;99.90
64715;DHT22;51144;53.002;6.506;2023-02-28T00:29:53;4.20;99.90
64715;DHT22;51144;53.002;6.506;2023-02-28T00:32:19;4.20;99.90
64715;DHT22;51144;53.002;6.506;2023-02-28T00:34:45;4.20;99.90
64715;DHT22;51144;53.002;6.506;2023-02-28T00:37:11;4.20;99.90
64715;DHT22;51144;53.002;6.506;2023-02-28T00:39:40;4.20;99.90
64715;DHT22;51144;53.002;6.506;2023-02-28T00:42:07;4.20;99.90
64715;DHT22;51144;53.002;6.506;2023-02-28T00:44:32;4.20;99.90
64715;DHT22;51144;53.002;6.506;2023-02-28T00:46:59;4.20;99.90
64715;DHT22;51144;53.002;6.506;2023-02-28T00:49:26;4.10;99.90
64715;DHT22;51144;53.002;6.506;2023-02-28T00:51:52;4.10;99.90
64715;DHT22;51144;53.002;6.506;2023-02-28T00:54:19;4.10;99.90
64715;DHT22;51144;53.002;6.506;2023-02-28T00:56:44;4.10;99.90
64715;DHT22;51144;53.002;6.506;2023-02-28T00:59:12;4.00;99.90
64715;DHT22;51144;53.002;6.506;2023-02-28T01:01:38;4.00;99.90
64715;DHT22;51144;53.002;6.506;2023-02-28T01:04:04;4.00;99.90
64715;DHT22;51144;53.002;6.506;2023-02-28T01:06:30;4.00;99.90
64715;DHT22;51144;53.002;6.506;2023-02-28T01:08:57;4.00;99.90
64715;DHT22;51144;53.002;6.506;2023-02-28T01:11:22;4.00;99.90
64715;DHT22;51144;53.002;6.506;2023-02-28T01:13:48;4.00;99.90
64715;DHT22;51144;53.002;6.506;2023-02-28T01:16:14;4.00;99.90
64715;DHT22;51144;53.002;6.506;2023-02-28T01:18:40;3.90;99.90
64715;DHT22;51144;53.002;6.506;2023-02-28T01:21:14;3.90;99.90
64715;DHT22;51144;53.002;6.506;2023-02-28T01:23:41;3.80;99.90
64715;DHT22;51144;53.002;6.506;2023-02-28T01:26:15;3.80;99.90
64715;DHT22;51144;53.002;6.506;2023-02-28T01:28:41;3.80;99.90
64715;DHT22;51144;53.002;6.506;2023-02-28T01:31:08;3.80;99.90
64715;DHT22;51144;53.002;6.506;2023-02-28T01:33:34;3.80;99.90
64715;DHT22;51144;53.002;6.506;2023-02-28T01:36:02;3.80;99.90
64715;DHT22;51144;53.002;6.506;2023-02-28T01:38:28;3.80;99.90
64715;DHT22;51144;53.002;6.506;2023-02-28T01:40:54;3.80;99.90
64715;DHT22;51144;53.002;6.506;2023-02-28T01:45:51;3.80;99.90
64715;DHT22;51144;53.002;6.506;2023-02-28T01:48:17;3.80;99.90
64715;DHT22;51144;53.002;6.506;2023-02-28T01:50:45;3.90;99.90
64715;DHT22;51144;53.002;6.506;2023-02-28T01:53:15;3.90;99.90
64715;DHT22;51144;53.002;6.506;2023-02-28T01:55:45;3.90;99.90
64715;DHT22;51144;53.002;6.506;2023-02-28T01:58:11;4.00;99.90
64715;DHT22;51144;53.002;6.506;2023-02-28T02:00:37;4.00;99.90
64715;DHT22;51144;53.002;6.506;2023-02-28T02:03:07;4.00;99.90
64715;DHT22;51144;53.002;6.506;2023-02-28T02:05:36;4.10;99.90
64715;DHT22;51144;53.002;6.506;2023-02-28T02:08:05;4.10;99.90
64715;DHT22;51144;53.002;6.506;2023-02-28T02:10:44;4.10;99.90
64715;DHT22;51144;53.002;6.506;2023-02-28T02:27:33;4.20;99.90
64715;DHT22;51144;53.002;6.506;2023-02-28T02:35:27;4.20;99.90
64715;DHT22;51144;53.002;6.506;2023-02-28T02:40:25;4.20;99.90
64715;DHT22;51144;53.002;6.506;2023-02-28T02:43:10;4.20;99.90
64715;DHT22;51144;53.002;6.506;2023-02-28T02:45:48;4.20;99.90
64715;DHT22;51144;53.002;6.506;2023-02-28T02:48:21;4.20;99.90
64715;DHT22;51144;53.002;6.506;2023-02-28T02:50:54;4.20;99.90
64715;DHT22;51144;53.002;6.506;2023-02-28T02:54:07;4.10;99.90
64715;DHT22;51144;53.002;6.506;2023-02-28T02:56:16;4.10;99.90
64715;DHT22;51144;53.002;6.506;2023-02-28T02:58:44;4.10;99.90
64715;DHT22;51144;53.002;6.506;2023-02-28T03:01:21;4.10;99.90
64715;DHT22;51144;53.002;6.506;2023-02-28T03:03:58;4.00;99.90
64715;DHT22;51144;53.002;6.506;2023-02-28T03:06:25;4.00;99.90
64715;DHT22;51144;53.002;6.506;2023-02-28T03:08:51;4.00;99.90
64715;DHT22;51144;53.002;6.506;2023-02-28T03:11:17;3.90;99.90
64715;DHT22;51144;53.002;6.506;2023-02-28T03:13:58;3.90;99.90
64715;DHT22;51144;53.002;6.506;2023-02-28T03:22:04;3.80;99.90
64715;DHT22;51144;53.002;6.506;2023-02-28T03:24:57;3.80;99.90
64715;DHT22;51144;53.002;6.506;2023-02-28T03:30:32;3.70;99.90
64715;DHT22;51144;53.002;6.506;2023-02-28T03:32:59;3.70;99.90
64715;DHT22;51144;53.002;6.506;2023-02-28T03:35:34;3.70;99.90
64715;DHT22;51144;53.002;6.506;2023-02-28T03:38:14;3.60;99.90
64715;DHT22;51144;53.002;6.506;2023-02-28T03:40:47;3.60;99.90
64715;DHT22;51144;53.002;6.506;2023-02-28T03:43:19;3.60;99.90
64715;DHT22;51144;53.002;6.506;2023-02-28T03:45:47;3.50;99.90
64715;DHT22;51144;53.002;6.506;2023-02-28T03:48:19;3.50;99.90
64715;DHT22;51144;53.002;6.506;2023-02-28T03:50:54;3.50;99.90
64715;DHT22;51144;53.002;6.506;2023-02-28T03:53:32;3.50;99.90
64715;DHT22;51144;53.002;6.506;2023-02-28T03:56:09;3.50;99.90
64715;DHT22;51144;53.002;6.506;2023-02-28T04:01:35;3.50;99.90
64715;DHT22;51144;53.002;6.506;2023-02-28T04:04:03;3.50;99.90
64715;DHT22;51144;53.002;6.506;2023-02-28T04:06:32;3.40;99.90
64715;DHT22;51144;53.002;6.506;2023-02-28T04:08:58;3.40;99.90
64715;DHT22;51144;53.002;6.506;2023-02-28T04:11:37;3.40;99.90
64715;DHT22;51144;53.002;6.506;2023-02-28T04:14:04;3.40;99.90
64715;DHT22;51144;53.002;6.506;2023-02-28T04:16:31;3.40;99.90
64715;DHT22;51144;53.002;6.506;2023-02-28T04:18:57;3.30;99.90
64715;DHT22;51144;53.002;6.506;2023-02-28T04:21:43;3.30;99.90
64715;DHT22;51144;53.002;6.506;2023-02-28T04:24:14;3.40;99.90
64715;DHT22;51144;53.002;6.506;2023-02-28T04:26:43;3.30;99.90
64715;DHT22;51144;53.002;6.506;2023-02-28T04:29:11;3.30;99.90
64715;DHT22;51144;53.002;6.506;2023-02-28T04:31:37;3.30;99.90
64715;DHT22;51144;53.002;6.506;2023-02-28T04:34:03;3.30;99.90
64715;DHT22;51144;53.002;6.506;2023-02-28T04:36:29;3.30;99.90
64715;DHT22;51144;53.002;6.506;2023-02-28T04:38:55;3.40;99.90
64715;DHT22;51144;53.002;6.506;2023-02-28T04:41:21;3.40;99.90
64715;DHT22;51144;53.002;6.506;2023-02-28T04:43:48;3.30;99.90
64715;DHT22;51144;53.002;6.506;2023-02-28T04:46:13;3.30;99.90
64715;DHT22;51144;53.002;6.506;2023-02-28T04:48:39;3.30;99.90
64715;DHT22;51144;53.002;6.506;2023-02-28T04:51:08;3.30;99.90
64715;DHT22;51144;53.002;6.506;2023-02-28T04:53:35;3.30;99.90
64715;DHT22;51144;53.002;6.506;2023-02-28T04:56:01;3.30;99.90
64715;DHT22;51144;53.002;6.506;2023-02-28T04:58:27;3.30;99.90
64715;DHT22;51144;53.002;6.506;2023-02-28T05:00:54;3.30;99.90
64715;DHT22;51144;53.002;6.506;2023-02-28T05:03:26;3.30;99.90
64715;DHT22;51144;53.002;6.506;2023-02-28T05:05:51;3.30;99.90
64715;DHT22;51144;53.002;6.506;2023-02-28T05:08:17;3.20;99.90
64715;DHT22;51144;53.002;6.506;2023-02-28T05:10:43;3.20;99.90
64715;DHT22;51144;53.002;6.506;2023-02-28T05:13:13;3.20;99.90
64715;DHT22;51144;53.002;6.506;2023-02-28T05:15:39;3.20;99.90
64715;DHT22;51144;53.002;6.506;2023-02-28T05:18:05;3.20;99.90
64715;DHT22;51144;53.002;6.506;2023-02-28T05:20:30;3.10;99.90
64715;DHT22;51144;53.002;6.506;2023-02-28T05:22:57;3.10;99.90
64715;DHT22;51144;53.002;6.506;2023-02-28T05:25:24;3.10;99.90
64715;DHT22;51144;53.002;6.506;2023-02-28T05:27:50;3.00;99.90
64715;DHT22;51144;53.002;6.506;2023-02-28T05:30:16;3.00;99.90
64715;DHT22;51144;53.002;6.506;2023-02-28T05:32:41;3.00;99.90
64715;DHT22;51144;53.002;6.506;2023-02-28T05:35:11;3.00;99.90
64715;DHT22;51144;53.002;6.506;2023-02-28T05:37:37;3.00;99.90
64715;DHT22;51144;53.002;6.506;2023-02-28T05:40:03;2.90;99.90
64715;DHT22;51144;53.002;6.506;2023-02-28T05:42:31;2.90;99.90
64715;DHT22;51144;53.002;6.506;2023-02-28T05:44:57;2.90;99.90
64715;DHT22;51144;53.002;6.506;2023-02-28T05:47:23;2.90;99.90
64715;DHT22;51144;53.002;6.506;2023-02-28T05:49:48;2.80;99.90
64715;DHT22;51144;53.002;6.506;2023-02-28T05:52:14;2.80;99.90
64715;DHT22;51144;53.002;6.506;2023-02-28T05:54:40;2.80;99.90
64715;DHT22;51144;53.002;6.506;2023-02-28T05:57:06;2.80;99.90
64715;DHT22;51144;53.002;6.506;2023-02-28T05:59:32;2.80;99.90
64715;DHT22;51144;53.002;6.506;2023-02-28T06:01:58;2.80;99.90
64715;DHT22;51144;53.002;6.506;2023-02-28T06:04:24;2.80;99.90
64715;DHT22;51144;53.002;6.506;2023-02-28T06:06:50;2.80;99.90
64715;DHT22;51144;53.002;6.506;2023-02-28T06:09:17;2.80;99.90
64715;DHT22;51144;53.002;6.506;2023-02-28T06:11:44;2.80;99.90
64715;DHT22;51144;53.002;6.506;2023-02-28T06:14:18;2.80;99.90
64715;DHT22;51144;53.002;6.506;2023-02-28T06:16:44;2.70;99.90
64715;DHT22;51144;53.002;6.506;2023-02-28T06:19:10;2.70;99.90
64715;DHT22;51144;53.002;6.506;2023-02-28T06:21:36;2.70;99.90
64715;DHT22;51144;53.002;6.506;2023-02-28T06:24:02;2.70;99.90
64715;DHT22;51144;53.002;6.506;2023-02-28T06:26:29;2.70;99.90
64715;DHT22;51144;53.002;6.506;2023-02-28T06:28:54;2.70;99.90
64715;DHT22;51144;53.002;6.506;2023-02-28T06:31:20;2.60;99.90
64715;DHT22;51144;53.002;6.506;2023-02-28T06:33:48;2.60;99.90
64715;DHT22;51144;53.002;6.506;2023-02-28T06:36:14;2.60;99.90
64715;DHT22;51144;53.002;6.506;2023-02-28T06:38:40;2.60;99.90
64715;DHT22;51144;53.002;6.506;2023-02-28T06:41:07;2.60;99.90
64715;DHT22;51144;53.002;6.506;2023-02-28T06:43:39;2.60;99.90
64715;DHT22;51144;53.002;6.506;2023-02-28T06:46:07;2.60;99.90
64715;DHT22;51144;53.002;6.506;2023-02-28T06:48:34;2.60;99.90
64715;DHT22;51144;53.002;6.506;2023-02-28T06:51:17;2.60;99.90
64715;DHT22;51144;53.002;6.506;2023-02-28T06:53:43;2.60;99.90
64715;DHT22;51144;53.002;6.506;2023-02-28T06:56:12;2.60;99.90
64715;DHT22;51144;53.002;6.506;2023-02-28T06:58:38;2.60;99.90
64715;DHT22;51144;53.002;6.506;2023-02-28T07:01:05;2.60;99.90
64715;DHT22;51144;53.002;6.506;2023-02-28T07:03:31;2.50;99.90
64715;DHT22;51144;53.002;6.506;2023-02-28T07:05:56;2.60;99.90
64715;DHT22;51144;53.002;6.506;2023-02-28T07:08:25;2.60;99.90
64715;DHT22;51144;53.002;6.506;2023-02-28T07:10:55;2.60;99.90
64715;DHT22;51144;53.002;6.506;2023-02-28T07:13:21;2.60;99.90
64715;DHT22;51144;53.002;6.506;2023-02-28T07:16:04;2.60;99.90
64715;DHT22;51144;53.002;6.506;2023-02-28T07:18:31;2.60;99.90
64715;DHT22;51144;53.002;6.506;2023-02-28T07:20:57;2.60;99.90
64715;DHT22;51144;53.002;6.506;2023-02-28T07:23:23;2.60;99.90
64715;DHT22;51144;53.002;6.506;2023-02-28T07:25:50;2.60;99.90
64715;DHT22;51144;53.002;6.506;2023-02-28T07:28:16;2.70;99.90
64715;DHT22;51144;53.002;6.506;2023-02-28T07:30:42;2.70;99.90
64715;DHT22;51144;53.002;6.506;2023-02-28T07:33:08;2.70;99.90
64715;DHT22;51144;53.002;6.506;2023-02-28T07:35:34;2.70;99.90
64715;DHT22;51144;53.002;6.506;2023-02-28T07:38:00;2.70;99.90
64715;DHT22;51144;53.002;6.506;2023-02-28T07:40:26;2.80;99.90
64715;DHT22;51144;53.002;6.506;2023-02-28T07:42:51;2.80;99.90
64715;DHT22;51144;53.002;6.506;2023-02-28T07:45:17;2.80;99.90
64715;DHT22;51144;53.002;6.506;2023-02-28T07:47:44;2.80;99.90
64715;DHT22;51144;53.002;6.506;2023-02-28T07:50:12;2.80;99.90
64715;DHT22;51144;53.002;6.506;2023-02-28T07:52:39;2.80;99.90
64715;DHT22;51144;53.002;6.506;2023-02-28T07:55:06;2.80;99.90
64715;DHT22;51144;53.002;6.506;2023-02-28T07:57:32;2.80;99.90
64715;DHT22;51144;53.002;6.506;2023-02-28T07:59:58;2.90;99.90
64715;DHT22;51144;53.002;6.506;2023-02-28T08:02:23;2.90;99.90
64715;DHT22;51144;53.002;6.506;2023-02-28T08:04:49;2.90;99.90
64715;DHT22;51144;53.002;6.506;2023-02-28T08:07:16;2.90;99.90
64715;DHT22;51144;53.002;6.506;2023-02-28T08:09:42;2.90;99.90
64715;DHT22;51144;53.002;6.506;2023-02-28T08:12:09;3.00;99.90
64715;DHT22;51144;53.002;6.506;2023-02-28T08:14:36;3.00;99.90
64715;DHT22;51144;53.002;6.506;2023-02-28T08:17:02;3.00;99.90
64715;DHT22;51144;53.002;6.506;2023-02-28T08:19:28;3.10;99.90
64715;DHT22;51144;53.002;6.506;2023-02-28T08:21:54;3.10;99.90
64715;DHT22;51144;53.002;6.506;2023-02-28T08:24:20;3.10;99.90
64715;DHT22;51144;53.002;6.506;2023-02-28T08:26:45;3.10;99.90
64715;DHT22;51144;53.002;6.506;2023-02-28T08:29:11;3.10;99.90
64715;DHT22;51144;53.002;6.506;2023-02-28T08:31:37;3.20;99.90
64715;DHT22;51144;53.002;6.506;2023-02-28T08:34:11;3.20;99.90
64715;DHT22;51144;53.002;6.506;2023-02-28T08:36:37;3.20;99.90
64715;DHT22;51144;53.002;6.506;2023-02-28T08:39:04;3.20;99.90
64715;DHT22;51144;53.002;6.506;2023-02-28T08:41:30;3.20;99.90
64715;DHT22;51144;53.002;6.506;2023-02-28T08:43:56;3.20;99.90
64715;DHT22;51144;53.002;6.506;2023-02-28T08:46:22;3.30;99.90
64715;DHT22;51144;53.002;6.506;2023-02-28T08:48:51;3.40;99.90
64715;DHT22;51144;53.002;6.506;2023-02-28T08:51:18;3.40;99.90
64715;DHT22;51144;53.002;6.506;2023-02-28T08:53:47;3.50;99.90
64715;DHT22;51144;53.002;6.506;2023-02-28T08:56:15;3.60;99.90
64715;DHT22;51144;53.002;6.506;2023-02-28T08:58:42;3.60;99.90
64715;DHT22;51144;53.002;6.506;2023-02-28T09:01:11;3.70;99.90
64715;DHT22;51144;53.002;6.506;2023-02-28T09:03:37;3.70;99.90
64715;DHT22;51144;53.002;6.506;2023-02-28T09:06:03;3.90;99.90
64715;DHT22;51144;53.002;6.506;2023-02-28T09:08:30;4.00;99.90
64715;DHT22;51144;53.002;6.506;2023-02-28T09:10:57;4.30;99.90
64715;DHT22;51144;53.002;6.506;2023-02-28T09:13:24;4.90;99.90
64715;DHT22;51144;53.002;6.506;2023-02-28T09:15:50;5.60;99.90
64715;DHT22;51144;53.002;6.506;2023-02-28T09:18:16;6.40;99.90
64715;DHT22;51144;53.002;6.506;2023-02-28T09:20:42;6.90;99.90
64715;DHT22;51144;53.002;6.506;2023-02-28T09:23:10;7.40;99.90
64715;DHT22;51144;53.002;6.506;2023-02-28T09:25:37;7.90;99.90
64715;DHT22;51144;53.002;6.506;2023-02-28T09:28:03;8.10;99.90
64715;DHT22;51144;53.002;6.506;2023-02-28T09:30:29;8.30;99.90
64715;DHT22;51144;53.002;6.506;2023-02-28T09:32:55;8.50;99.90
64715;DHT22;51144;53.002;6.506;2023-02-28T09:35:22;8.60;99.90
64715;DHT22;51144;53.002;6.506;2023-02-28T09:37:49;9.00;99.90
64715;DHT22;51144;53.002;6.506;2023-02-28T09:40:15;9.30;99.90
64715;DHT22;51144;53.002;6.506;2023-02-28T09:42:46;9.50;99.90
64715;DHT22;51144;53.002;6.506;2023-02-28T09:45:36;9.70;99.90
64715;DHT22;51144;53.002;6.506;2023-02-28T09:48:24;9.90;99.90
64715;DHT22;51144;53.002;6.506;2023-02-28T09:50:52;9.80;99.90
64715;DHT22;51144;53.002;6.506;2023-02-28T09:55:58;9.70;99.90
64715;DHT22;51144;53.002;6.506;2023-02-28T09:58:51;9.80;99.90
64715;DHT22;51144;53.002;6.506;2023-02-28T10:07:04;10.00;99.90
64715;DHT22;51144;53.002;6.506;2023-02-28T10:09:33;10.30;99.90
64715;DHT22;51144;53.002;6.506;2023-02-28T10:12:04;10.30;99.90
64715;DHT22;51144;53.002;6.506;2023-02-28T10:14:33;10.30;99.90
64715;DHT22;51144;53.002;6.506;2023-02-28T10:17:08;10.50;99.90
64715;DHT22;51144;53.002;6.506;2023-02-28T10:19:42;10.80;99.90
64715;DHT22;51144;53.002;6.506;2023-02-28T10:22:17;10.90;99.90
64715;DHT22;51144;53.002;6.506;2023-02-28T10:24:46;11.00;99.90
64715;DHT22;51144;53.002;6.506;2023-02-28T10:27:19;11.40;99.90
64715;DHT22;51144;53.002;6.506;2023-02-28T10:29:48;11.60;99.90
64715;DHT22;51144;53.002;6.506;2023-02-28T10:32:17;11.30;99.90
64715;DHT22;51144;53.002;6.506;2023-02-28T10:34:44;11.40;99.90
64715;DHT22;51144;53.002;6.506;2023-02-28T10:37:11;11.40;99.90
64715;DHT22;51144;53.002;6.506;2023-02-28T10:39:43;11.60;99.90
64715;DHT22;51144;53.002;6.506;2023-02-28T10:42:24;11.70;99.90
64715;DHT22;51144;53.002;6.506;2023-02-28T10:45:10;11.50;99.90
64715;DHT22;51144;53.002;6.506;2023-02-28T10:47:52;11.40;99.90
64715;DHT22;51144;53.002;6.506;2023-02-28T10:50:42;11.60;99.90
64715;DHT22;51144;53.002;6.506;2023-02-28T10:58:55;11.70;99.90
64715;DHT22;51144;53.002;6.506;2023-02-28T11:01:42;11.40;99.90
64715;DHT22;51144;53.002;6.506;2023-02-28T11:04:39;11.10;99.90
64715;DHT22;51144;53.002;6.506;2023-02-28T11:07:26;11.30;99.90
64715;DHT22;51144;53.002;6.506;2023-02-28T11:09:55;11.10;99.90
64715;DHT22;51144;53.002;6.506;2023-02-28T11:12:37;11.30;99.90
64715;DHT22;51144;53.002;6.506;2023-02-28T11:15:24;11.40;99.90
64715;DHT22;51144;53.002;6.506;2023-02-28T11:20:37;11.40;99.90
64715;DHT22;51144;53.002;6.506;2023-02-28T11:23:04;11.30;99.80
64715;DHT22;51144;53.002;6.506;2023-02-28T11:25:32;11.00;99.90
64715;DHT22;51144;53.002;6.506;2023-02-28T11:28:02;11.10;99.90
64715;DHT22;51144;53.002;6.506;2023-02-28T11:30:38;10.80;99.90
64715;DHT22;51144;53.002;6.506;2023-02-28T11:35:52;11.20;99.90
64715;DHT22;51144;53.002;6.506;2023-02-28T11:38:18;11.10;99.40
64715;DHT22;51144;53.002;6.506;2023-02-28T11:43:30;10.30;99.90
64715;DHT22;51144;53.002;6.506;2023-02-28T11:51:24;10.20;99.90
64715;DHT22;51144;53.002;6.506;2023-02-28T11:54:05;10.00;99.90
64715;DHT22;51144;53.002;6.506;2023-02-28T11:56:48;9.50;99.90
64715;DHT22;51144;53.002;6.506;2023-02-28T11:59:43;9.30;99.90
64715;DHT22;51144;53.002;6.506;2023-02-28T12:05:21;8.50;99.90
64715;DHT22;51144;53.002;6.506;2023-02-28T12:11:11;8.60;99.90
64715;DHT22;51144;53.002;6.506;2023-02-28T12:14:05;9.20;99.90
64715;DHT22;51144;53.002;6.506;2023-02-28T12:16:40;9.40;99.90
64715;DHT22;51144;53.002;6.506;2023-02-28T12:19:18;9.30;99.90
64715;DHT22;51144;53.002;6.506;2023-02-28T12:22:29;9.90;99.90
64715;DHT22;51144;53.002;6.506;2023-02-28T12:27:34;9.50;99.90
64715;DHT22;51144;53.002;6.506;2023-02-28T12:30:17;9.30;99.90
64715;DHT22;51144;53.002;6.506;2023-02-28T12:32:52;9.60;99.90
64715;DHT22;51144;53.002;6.506;2023-02-28T12:35:23;10.10;99.90
64715;DHT22;51144;53.002;6.506;2023-02-28T12:38:08;10.40;99.50
64715;DHT22;51144;53.002;6.506;2023-02-28T12:41:08;10.50;99.90
64715;DHT22;51144;53.002;6.506;2023-02-28T12:43:42;10.90;99.90
64715;DHT22;51144;53.002;6.506;2023-02-28T12:46:21;11.20;99.90
64715;DHT22;51144;53.002;6.506;2023-02-28T12:49:04;11.40;99.90
64715;DHT22;51144;53.002;6.506;2023-02-28T12:51:30;11.70;99.90
64715;DHT22;51144;53.002;6.506;2023-02-28T12:54:19;11.70;99.90
64715;DHT22;51144;53.002;6.506;2023-02-28T12:59:51;11.70;98.70
64715;DHT22;51144;53.002;6.506;2023-02-28T13:11:43;10.10;99.00
64715;DHT22;51144;53.002;6.506;2023-02-28T13:14:25;9.40;98.90
64715;DHT22;51144;53.002;6.506;2023-02-28T13:17:19;9.10;99.90
64715;DHT22;51144;53.002;6.506;2023-02-28T13:24:55;8.80;99.90
64715;DHT22;51144;53.002;6.506;2023-02-28T13:27:35;8.70;98.90
64715;DHT22;51144;53.002;6.506;2023-02-28T13:44:20;11.10;94.60
64715;DHT22;51144;53.002;6.506;2023-02-28T14:00:21;10.50;96.30
64715;DHT22;51144;53.002;6.506;2023-02-28T14:03:27;10.40;96.70
64715;DHT22;51144;53.002;6.506;2023-02-28T14:06:26;10.60;97.40
64715;DHT22;51144;53.002;6.506;2023-02-28T14:09:15;11.10;95.10
64715;DHT22;51144;53.002;6.506;2023-02-28T14:11:43;10.70;95.70
64715;DHT22;51144;53.002;6.506;2023-02-28T14:14:53;10.50;95.60
64715;DHT22;51144;53.002;6.506;2023-02-28T14:16:55;10.00;96.80
64715;DHT22;51144;53.002;6.506;2023-02-28T14:19:28;9.90;96.10
64715;DHT22;51144;53.002;6.506;2023-02-28T14:25:20;9.00;97.20
64715;DHT22;51144;53.002;6.506;2023-02-28T14:28:23;9.00;98.00
64715;DHT22;51144;53.002;6.506;2023-02-28T14:31:15;8.90;97.90
64715;DHT22;51144;53.002;6.506;2023-02-28T14:36:44;8.70;98.70
64715;DHT22;51144;53.002;6.506;2023-02-28T14:39:19;8.60;96.90
64715;DHT22;51144;53.002;6.506;2023-02-28T14:41:45;8.70;97.80
64715;DHT22;51144;53.002;6.506;2023-02-28T14:44:23;8.90;98.10
64715;DHT22;51144;53.002;6.506;2023-02-28T14:51:50;8.60;99.30
64715;DHT22;51144;53.002;6.506;2023-02-28T14:54:26;8.60;99.60
64715;DHT22;51144;53.002;6.506;2023-02-28T14:56:52;8.60;99.90
64715;DHT22;51144;53.002;6.506;2023-02-28T14:59:32;8.60;99.90
64715;DHT22;51144;53.002;6.506;2023-02-28T15:02:18;8.70;99.90
64715;DHT22;51144;53.002;6.506;2023-02-28T15:04:56;8.60;99.90
64715;DHT22;51144;53.002;6.506;2023-02-28T15:07:22;8.60;99.90
64715;DHT22;51144;53.002;6.506;2023-02-28T15:10:15;8.60;99.90
64715;DHT22;51144;53.002;6.506;2023-02-28T15:13:04;8.50;99.90
64715;DHT22;51144;53.002;6.506;2023-02-28T15:18:25;8.20;99.90
64715;DHT22;51144;53.002;6.506;2023-02-28T15:20:52;8.00;99.50
64715;DHT22;51144;53.002;6.506;2023-02-28T15:23:20;8.00;99.90
64715;DHT22;51144;53.002;6.506;2023-02-28T15:25:47;7.90;99.90
64715;DHT22;51144;53.002;6.506;2023-02-28T15:28:17;7.90;99.90
64715;DHT22;51144;53.002;6.506;2023-02-28T15:30:59;7.80;99.90
64715;DHT22;51144;53.002;6.506;2023-02-28T15:33:28;7.80;99.90
64715;DHT22;51144;53.002;6.506;2023-02-28T15:36:14;7.60;99.90
64715;DHT22;51144;53.002;6.506;2023-02-28T15:38:42;7.60;99.90
64715;DHT22;51144;53.002;6.506;2023-02-28T15:41:36;7.60;99.90
64715;DHT22;51144;53.002;6.506;2023-02-28T15:47:04;7.60;99.90
64715;DHT22;51144;53.002;6.506;2023-02-28T15:49:58;7.70;99.90
64715;DHT22;51144;53.002;6.506;2023-02-28T15:55:11;7.80;99.90
64715;DHT22;51144;53.002;6.506;2023-02-28T15:57:39;7.90;99.90
64715;DHT22;51144;53.002;6.506;2023-02-28T16:00:11;7.90;99.90
64715;DHT22;51144;53.002;6.506;2023-02-28T16:02:38;7.90;99.90
64715;DHT22;51144;53.002;6.506;2023-02-28T16:07:38;7.90;99.90
64715;DHT22;51144;53.002;6.506;2023-02-28T16:10:05;7.80;99.90
64715;DHT22;51144;53.002;6.506;2023-02-28T16:12:34;7.70;99.90
64715;DHT22;51144;53.002;6.506;2023-02-28T16:15:03;7.60;99.90
64715;DHT22;51144;53.002;6.506;2023-02-28T16:17:33;7.50;99.90
64715;DHT22;51144;53.002;6.506;2023-02-28T16:20:00;7.50;99.90
64715;DHT22;51144;53.002;6.506;2023-02-28T16:22:25;7.40;99.90
64715;DHT22;51144;53.002;6.506;2023-02-28T16:24:52;7.30;99.90
64715;DHT22;51144;53.002;6.506;2023-02-28T16:27:37;7.20;99.90
64715;DHT22;51144;53.002;6.506;2023-02-28T16:30:05;7.20;99.90
64715;DHT22;51144;53.002;6.506;2023-02-28T16:32:32;7.20;99.90
64715;DHT22;51144;53.002;6.506;2023-02-28T16:35:00;7.10;99.90
64715;DHT22;51144;53.002;6.506;2023-02-28T16:37:27;7.10;99.90
64715;DHT22;51144;53.002;6.506;2023-02-28T16:39:52;7.00;99.90
64715;DHT22;51144;53.002;6.506;2023-02-28T16:42:27;7.00;99.90
64715;DHT22;51144;53.002;6.506;2023-02-28T16:44:54;6.90;99.90
64715;DHT22;51144;53.002;6.506;2023-02-28T16:47:21;6.90;99.90
64715;DHT22;51144;53.002;6.506;2023-02-28T16:49:47;6.90;99.90
64715;DHT22;51144;53.002;6.506;2023-02-28T16:52:13;6.90;99.90
64715;DHT22;51144;53.002;6.506;2023-02-28T16:54:40;6.90;99.90
64715;DHT22;51144;53.002;6.506;2023-02-28T16:57:13;6.80;99.90
64715;DHT22;51144;53.002;6.506;2023-02-28T16:59:41;6.80;99.90
64715;DHT22;51144;53.002;6.506;2023-02-28T17:02:14;6.80;99.90
64715;DHT22;51144;53.002;6.506;2023-02-28T17:04:41;6.70;99.90
64715;DHT22;51144;53.002;6.506;2023-02-28T17:07:14;6.60;99.90
64715;DHT22;51144;53.002;6.506;2023-02-28T17:09:41;6.50;99.90
64715;DHT22;51144;53.002;6.506;2023-02-28T17:12:07;6.50;99.90
64715;DHT22;51144;53.002;6.506;2023-02-28T17:14:34;6.40;99.90
64715;DHT22;51144;53.002;6.506;2023-02-28T17:16:59;6.30;99.90
64715;DHT22;51144;53.002;6.506;2023-02-28T17:19:25;6.30;99.90
64715;DHT22;51144;53.002;6.506;2023-02-28T17:21:51;6.20;99.90
64715;DHT22;51144;53.002;6.506;2023-02-28T17:24:16;6.20;99.90
64715;DHT22;51144;53.002;6.506;2023-02-28T17:26:42;6.20;99.90
64715;DHT22;51144;53.002;6.506;2023-02-28T17:29:15;6.10;99.90
64715;DHT22;51144;53.002;6.506;2023-02-28T17:31:42;6.00;99.90
64715;DHT22;51144;53.002;6.506;2023-02-28T17:34:07;6.00;99.90
64715;DHT22;51144;53.002;6.506;2023-02-28T17:36:34;5.90;99.90
64715;DHT22;51144;53.002;6.506;2023-02-28T17:39:01;5.90;99.90
64715;DHT22;51144;53.002;6.506;2023-02-28T17:41:26;5.80;99.90
64715;DHT22;51144;53.002;6.506;2023-02-28T17:43:52;5.80;99.90
64715;DHT22;51144;53.002;6.506;2023-02-28T17:46:22;5.70;99.90
64715;DHT22;51144;53.002;6.506;2023-02-28T17:48:49;5.60;99.90
64715;DHT22;51144;53.002;6.506;2023-02-28T17:51:16;5.50;99.90
64715;DHT22;51144;53.002;6.506;2023-02-28T17:53:42;5.40;99.90
64715;DHT22;51144;53.002;6.506;2023-02-28T17:56:20;5.30;99.90
64715;DHT22;51144;53.002;6.506;2023-02-28T17:58:46;5.20;99.90
64715;DHT22;51144;53.002;6.506;2023-02-28T18:01:12;5.20;99.90
64715;DHT22;51144;53.002;6.506;2023-02-28T18:03:39;5.10;99.90
64715;DHT22;51144;53.002;6.506;2023-02-28T18:06:05;5.00;99.90
64715;DHT22;51144;53.002;6.506;2023-02-28T18:08:31;4.90;99.90
64715;DHT22;51144;53.002;6.506;2023-02-28T18:11:00;4.90;99.90
64715;DHT22;51144;53.002;6.506;2023-02-28T18:13:26;4.90;99.90
64715;DHT22;51144;53.002;6.506;2023-02-28T18:15:53;5.00;99.90
64715;DHT22;51144;53.002;6.506;2023-02-28T18:18:19;5.00;99.90
64715;DHT22;51144;53.002;6.506;2023-02-28T18:20:44;5.10;99.90
64715;DHT22;51144;53.002;6.506;2023-02-28T18:23:10;5.20;99.90
64715;DHT22;51144;53.002;6.506;2023-02-28T18:25:36;5.30;99.90